ADDS METAR Data INFO
IDs: Format: Raw Decoded Include TAF

Data at: 0434 UTC 24 Apr 2018

KHRL 240352Z 15006KT 10SM OVC085 22/18 A3005 RMK AO2 SLP176 T02170178
KHRL 240252Z 14005KT 10SM BKN085 22/17 A3006 RMK AO2 SLP177 T02220172 53018
KHRL 240152Z 13006KT 10SM OVC075 23/17 A3004 RMK AO2 SLP172 T02280172
KHRL 240052Z 10011KT 10SM CLR 23/17 A3002 RMK AO2 SLP164 T02280167
KHRL 232352Z 09011KT 10SM FEW085 25/16 A3000 RMK AO2 SLP159 T02500161 10294 20250 55004
KHRL 232252Z 09011KT 10SM CLR 26/16 A2999 RMK AO2 SLP156 T02610161
KHRL 232152Z 10012KT 10SM BKN090 27/15 A2999 RMK AO2 SLP156 T02720150
KHRL 232052Z 10011G19KT 070V130 10SM BKN070 28/14 A3001 RMK AO2 SLP163 T02780144 58021
KHRL 231952Z 08010G18KT 10SM BKN070 28/14 A3004 RMK AO2 SLP170 T02780139
KHRL 231852Z 08009G19KT 10SM FEW075 SCT095 28/15 A3006 RMK AO2 SLP178 T02780150
KHRL 231752Z 11013KT 10SM OVC090 27/16 A3008 RMK AO2 SLP184 T02670156 10272 20194 58005
KHRL 231652Z 10012KT 10SM OVC080 25/15 A3010 RMK AO2 SLP192 T02500150
KHRL 231552Z 09014KT 10SM SCT050 OVC075 24/15 A3010 RMK AO2 SLP191 T02440150
KHRL 231452Z 07013KT 10SM BKN085 25/17 A3009 RMK AO2 SLP189 T02500172 51022
KHRL 231352Z 07008KT 10SM FEW048 BKN085 22/18 A3008 RMK AO2 SLP184 T02220183
KHRL 231252Z 05004KT 10SM OVC080 21/18 A3006 RMK AO2 SLP179 T02060183
KHRL 231152Z 04005KT 10SM BKN080 19/18 A3002 RMK AO2 SLP167 T01940178 10194 20161 53007
KHRL 231052Z 00000KT 10SM OVC080 19/18 A3001 RMK AO2 SLP162 T01940178
KHRL 230952Z 29003KT 10SM OVC075 18/18 A3001 RMK AO2 SLP161 T01830178
KHRL 230852Z 00000KT 10SM OVC075 18/18 A3000 RMK AO2 SLP160 T01830178 55003
KHRL 230752Z 04003KT 10SM CLR 17/17 A3000 RMK AO2 SLP158 T01720172
KHRL 230652Z 04006KT 10SM CLR 17/16 A3000 RMK AO2 SLP157 T01670161
KHRL 230552Z 12005KT 10SM CLR 17/16 A3001 RMK AO2 SLP162 T01720161 10233 20172 402780172 50002
KHRL 230452Z 11005KT 10SM CLR 18/17 A3003 RMK AO2 SLP167 T01830167
KHRL 230352Z 12006KT 10SM CLR 19/17 A3003 RMK AO2 SLP167 T01890167
KHRL 230252Z 10005KT 10SM CLR 19/16 A3001 RMK AO2 SLP160 T01940161 53014
KHRL 230152Z 07008KT 10SM CLR 21/16 A2998 RMK AO2 SLP152 T02110156
KHRL 230052Z 08008KT 10SM CLR 22/15 A2997 RMK AO2 SLP147 T02220150
KHRL 222352Z 07013KT 10SM CLR 23/15 A2996 RMK AO2 SLP146 T02330150 10278 20233 55002
KHRL 222252Z 07013KT 10SM CLR 26/16 A2996 RMK AO2 SLP143 T02610156
KHRL 222152Z 08012KT 10SM CLR 27/17 A2995 RMK AO2 SLP142 T02670167
KHRL 222052Z 06013G24KT 10SM CLR 27/18 A2997 RMK AO2 SLP148 T02720178 58023
KHRL 222000Z AUTO 07013KT 10SM SCT019 27/19 A2999 RMK AO2 T02670194
KHRL 221952Z AUTO 05012KT 10SM BKN019 26/19 A3000 RMK AO2 SLP157 T02560194
KHRL 221917Z 07011KT 10SM OVC016 25/20 A3001 RMK AO2 T02500200
KHRL 221852Z 05012KT 10SM OVC013 24/19 A3003 RMK AO2 SLP167 T02390194
KHRL 221752Z 05010KT 10SM OVC011 23/20 A3004 RMK AO2 SLP172 60000 T02330200 10272 20200 51016
KHRL 221652Z 06013KT 10SM OVC014 24/21 A3003 RMK AO2 SLP169 T02390206